createdAt,value
2019-05-20T00:00:45.829Z,980.57
2019-05-20T00:01:45.811Z,980.58
2019-05-20T00:02:45.812Z,980.59
2019-05-20T00:03:45.789Z,980.58
2019-05-20T00:04:45.768Z,980.56
2019-05-20T00:05:45.769Z,980.56
2019-05-20T00:06:45.737Z,980.56
2019-05-20T00:07:45.717Z,980.54
2019-05-20T00:08:45.701Z,980.52
2019-05-20T00:09:45.689Z,980.52
2019-05-20T00:10:45.677Z,980.52
2019-05-20T00:11:45.671Z,980.53
2019-05-20T00:12:45.648Z,980.51
2019-05-20T00:13:45.631Z,980.57
2019-05-20T00:14:45.611Z,980.56
2019-05-20T00:15:45.596Z,980.57
2019-05-20T00:16:45.585Z,980.58
2019-05-20T00:17:45.574Z,980.64
2019-05-20T00:18:45.569Z,980.58
2019-05-20T00:19:45.559Z,980.57
2019-05-20T00:20:45.522Z,980.61
2019-05-20T00:21:45.509Z,980.58
2019-05-20T00:22:45.490Z,980.59
2019-05-20T00:23:45.476Z,980.56
2019-05-20T00:24:45.463Z,980.60
2019-05-20T00:25:45.439Z,980.56
2019-05-20T00:26:45.427Z,980.58
2019-05-20T00:27:45.420Z,980.62
2019-05-20T00:28:45.397Z,980.64
2019-05-20T00:29:45.389Z,980.65
2019-05-20T00:30:45.393Z,980.64
2019-05-20T00:31:45.356Z,980.56
2019-05-20T00:32:45.329Z,980.59
2019-05-20T00:33:45.326Z,980.57
2019-05-20T00:34:45.304Z,980.57
2019-05-20T00:35:45.289Z,980.55
2019-05-20T00:36:45.269Z,980.55
2019-05-20T00:37:45.257Z,980.56
2019-05-20T00:38:45.258Z,980.53
2019-05-20T00:39:45.270Z,980.52
2019-05-20T00:40:45.216Z,980.48
2019-05-20T00:41:45.199Z,980.45
2019-05-20T00:42:45.189Z,980.49
2019-05-20T00:43:45.166Z,980.48
2019-05-20T00:44:45.171Z,980.50
2019-05-20T00:45:45.132Z,980.48
2019-05-20T00:46:45.118Z,980.47
2019-05-20T00:47:45.109Z,980.46
2019-05-20T00:48:45.087Z,980.47
2019-05-20T00:49:45.079Z,980.50
2019-05-20T00:50:45.058Z,980.46
2019-05-20T00:51:45.061Z,980.42
2019-05-20T00:52:45.048Z,980.45
2019-05-20T00:53:45.023Z,980.44
2019-05-20T00:54:44.993Z,980.43
2019-05-20T00:55:44.981Z,980.43
2019-05-20T00:56:44.972Z,980.40
2019-05-20T00:57:45.032Z,980.36
2019-05-20T00:58:45.002Z,980.37
2019-05-20T00:59:44.988Z,980.38
2019-05-20T01:00:44.922Z,980.39
2019-05-20T01:01:44.881Z,980.40
2019-05-20T01:02:56.561Z,980.34
2019-05-20T01:03:44.850Z,980.34
2019-05-20T01:04:44.829Z,980.34
2019-05-20T01:05:44.834Z,980.35
2019-05-20T01:06:44.809Z,980.34
2019-05-20T01:07:44.794Z,980.31
2019-05-20T01:08:44.783Z,980.37
2019-05-20T01:09:44.753Z,980.35
2019-05-20T01:10:44.740Z,980.34
2019-05-20T01:11:44.740Z,980.34
2019-05-20T01:12:44.705Z,980.35
2019-05-20T01:13:44.703Z,980.33
2019-05-20T01:14:44.688Z,980.35
2019-05-20T01:15:44.666Z,980.31
2019-05-20T01:16:44.650Z,980.29
2019-05-20T01:17:44.627Z,980.32
2019-05-20T01:18:44.615Z,980.37
2019-05-20T01:19:44.595Z,980.38
2019-05-20T01:20:44.582Z,980.31
2019-05-20T01:21:44.567Z,980.34
2019-05-20T01:22:44.550Z,980.34
2019-05-20T01:23:44.533Z,980.31
2019-05-20T01:24:44.541Z,980.31
2019-05-20T01:25:44.507Z,980.33
2019-05-20T01:26:44.516Z,980.32
2019-05-20T01:27:44.489Z,980.26
2019-05-20T01:28:44.453Z,980.23
2019-05-20T01:29:44.441Z,980.26
2019-05-20T01:30:44.425Z,980.22
2019-05-20T01:31:44.404Z,980.25
2019-05-20T01:32:44.406Z,980.24
2019-05-20T01:33:44.373Z,980.21
2019-05-20T01:34:44.362Z,980.21
2019-05-20T01:35:44.341Z,980.21
2019-05-20T01:36:44.328Z,980.19
2019-05-20T01:37:44.310Z,980.13
2019-05-20T01:38:44.292Z,980.11
2019-05-20T01:39:44.288Z,980.13
2019-05-20T01:40:44.263Z,980.10
2019-05-20T01:41:44.250Z,980.14
2019-05-20T01:42:44.227Z,980.11
2019-05-20T01:43:44.216Z,980.10
2019-05-20T01:44:44.211Z,980.12
2019-05-20T01:45:44.195Z,980.11
2019-05-20T01:46:44.174Z,980.11
2019-05-20T01:47:44.162Z,980.12
2019-05-20T01:48:44.137Z,980.12
2019-05-20T01:49:44.120Z,980.14
2019-05-20T01:50:44.102Z,980.15
2019-05-20T01:51:44.089Z,980.15
2019-05-20T01:52:44.084Z,980.16
2019-05-20T01:53:44.056Z,980.13
2019-05-20T01:54:44.055Z,980.17
2019-05-20T01:55:44.020Z,980.08
2019-05-20T01:56:44.018Z,980.08
2019-05-20T01:57:43.994Z,980.08
2019-05-20T01:58:43.987Z,980.09
2019-05-20T01:59:43.962Z,980.05
2019-05-20T02:00:43.951Z,980.09
2019-05-20T02:01:43.929Z,980.11
2019-05-20T02:02:43.903Z,980.05
2019-05-20T02:03:43.893Z,980.08
2019-05-20T02:04:43.879Z,980.07
2019-05-20T02:05:43.867Z,980.05
2019-05-20T02:06:43.851Z,980.07
2019-05-20T02:07:43.845Z,980.07
2019-05-20T02:08:43.817Z,980.03
2019-05-20T02:09:43.795Z,980.06
2019-05-20T02:10:43.782Z,980.09
2019-05-20T02:11:43.761Z,980.09
2019-05-20T02:12:43.742Z,980.12
2019-05-20T02:13:43.741Z,980.09
2019-05-20T02:14:43.717Z,980.14
2019-05-20T02:15:43.701Z,980.15
2019-05-20T02:16:43.685Z,980.21
2019-05-20T02:17:43.671Z,980.18
2019-05-20T02:18:43.654Z,980.23
2019-05-20T02:19:43.630Z,980.23
2019-05-20T02:20:43.622Z,980.22
2019-05-20T02:21:43.610Z,980.19
2019-05-20T02:22:43.594Z,980.15
2019-05-20T02:23:43.574Z,980.17
2019-05-20T02:24:43.561Z,980.20
2019-05-20T02:25:46.704Z,980.17
2019-05-20T02:26:43.526Z,980.10
2019-05-20T02:27:43.512Z,980.11
2019-05-20T02:28:43.499Z,980.09
2019-05-20T02:29:43.488Z,980.14
2019-05-20T02:30:43.475Z,980.16
2019-05-20T02:31:43.452Z,980.16
2019-05-20T02:32:43.432Z,980.19
2019-05-20T02:33:51.748Z,980.18
2019-05-20T02:34:43.416Z,980.12
2019-05-20T02:35:43.384Z,980.14
2019-05-20T02:36:43.361Z,980.15
2019-05-20T02:37:43.352Z,980.15
2019-05-20T02:38:43.335Z,980.12
2019-05-20T02:39:43.311Z,980.09
2019-05-20T02:40:43.302Z,980.13
2019-05-20T02:41:43.282Z,980.14
2019-05-20T02:42:43.259Z,980.14
2019-05-20T02:43:43.252Z,980.13
2019-05-20T02:44:53.428Z,980.08
2019-05-20T02:46:50.228Z,980.09
2019-05-20T02:47:50.202Z,980.09
2019-05-20T02:50:01.759Z,980.03
2019-05-20T02:51:01.743Z,980.04
2019-05-20T02:53:10.847Z,980.06
2019-05-20T02:54:10.823Z,980.05
2019-05-20T02:56:19.753Z,980.04
2019-05-20T02:57:19.746Z,980.04
2019-05-20T02:58:19.743Z,980.02
2019-05-20T02:59:19.709Z,980.01
2019-05-20T03:00:19.712Z,980.01
2019-05-20T03:01:21.987Z,980.04
2019-05-20T03:02:19.652Z,980.04
2019-05-20T03:03:19.637Z,980.04
2019-05-20T03:04:19.625Z,980.13
2019-05-20T03:05:19.618Z,980.08
2019-05-20T03:06:19.597Z,980.11
2019-05-20T03:07:19.563Z,980.08
2019-05-20T03:08:19.559Z,980.07
2019-05-20T03:09:19.550Z,980.13
2019-05-20T03:10:19.521Z,980.12
2019-05-20T03:11:19.508Z,980.15
2019-05-20T03:12:19.489Z,980.17
2019-05-20T03:13:19.501Z,980.17
2019-05-20T03:14:19.458Z,980.24
2019-05-20T03:15:19.440Z,980.18
2019-05-20T03:16:19.426Z,980.24
2019-05-20T03:17:19.411Z,980.26
2019-05-20T03:18:19.405Z,980.24
2019-05-20T03:19:19.410Z,980.25
2019-05-20T03:20:19.386Z,980.23
2019-05-20T03:21:19.345Z,980.26
2019-05-20T03:22:19.348Z,980.28
2019-05-20T03:23:19.317Z,980.30
2019-05-20T03:24:19.292Z,980.36
2019-05-20T03:25:19.314Z,980.33
2019-05-20T03:26:19.260Z,980.37
2019-05-20T03:27:19.245Z,980.36
2019-05-20T03:28:19.226Z,980.32
2019-05-20T03:29:19.210Z,980.32
2019-05-20T03:30:19.207Z,980.34
2019-05-20T03:31:19.182Z,980.32
2019-05-20T03:32:19.159Z,980.33
2019-05-20T03:33:19.158Z,980.30
2019-05-20T03:34:44.167Z,980.33
2019-05-20T03:35:19.120Z,980.34
2019-05-20T03:36:19.101Z,980.32
2019-05-20T03:37:19.088Z,980.38
2019-05-20T03:38:19.070Z,980.29
2019-05-20T03:39:19.044Z,980.31
2019-05-20T03:40:19.027Z,980.30
2019-05-20T03:41:19.039Z,980.33
2019-05-20T03:42:19.004Z,980.33
2019-05-20T03:43:18.986Z,980.33
2019-05-20T03:44:18.970Z,980.34
2019-05-20T03:45:18.950Z,980.37
2019-05-20T03:46:18.934Z,980.33
2019-05-20T03:47:18.926Z,980.36
2019-05-20T03:48:18.904Z,980.38
2019-05-20T03:49:18.957Z,980.35
2019-05-20T03:50:18.867Z,980.34
2019-05-20T03:51:18.872Z,980.34
2019-05-20T03:52:18.839Z,980.37
2019-05-20T03:53:18.817Z,980.34
2019-05-20T03:54:18.815Z,980.33
2019-05-20T03:55:18.795Z,980.36
2019-05-20T03:56:18.767Z,980.34
2019-05-20T03:57:18.755Z,980.37
2019-05-20T03:58:18.761Z,980.38
2019-05-20T03:59:18.741Z,980.33
2019-05-20T04:00:18.716Z,980.39
2019-05-20T04:01:18.707Z,980.39
2019-05-20T04:02:18.669Z,980.38
2019-05-20T04:03:18.707Z,980.35
2019-05-20T04:04:18.701Z,980.33
2019-05-20T04:05:18.622Z,980.40
2019-05-20T04:06:18.609Z,980.33
2019-05-20T04:07:18.594Z,980.36
2019-05-20T04:08:18.573Z,980.38
2019-05-20T04:09:18.563Z,980.33
2019-05-20T04:10:18.544Z,980.33
2019-05-20T04:11:18.530Z,980.34
2019-05-20T04:12:18.511Z,980.33
2019-05-20T04:13:18.498Z,980.33
2019-05-20T04:14:18.481Z,980.34
2019-05-20T04:15:18.480Z,980.32
2019-05-20T04:16:18.451Z,980.31
2019-05-20T04:17:18.453Z,980.33
2019-05-20T04:18:18.431Z,980.37
2019-05-20T04:19:18.396Z,980.31
2019-05-20T04:20:18.379Z,980.31
2019-05-20T04:21:18.359Z,980.31
2019-05-20T04:22:18.356Z,980.30
2019-05-20T04:23:18.335Z,980.31
2019-05-20T04:24:18.313Z,980.30
2019-05-20T04:25:18.338Z,980.27
2019-05-20T04:26:18.304Z,980.27
2019-05-20T04:27:18.277Z,980.28
2019-05-20T04:28:18.255Z,980.25
2019-05-20T04:29:18.239Z,980.29
2019-05-20T04:30:19.146Z,980.29
2019-05-20T04:31:18.209Z,980.31
2019-05-20T04:32:18.184Z,980.32
2019-05-20T04:33:18.172Z,980.31
2019-05-20T04:34:18.179Z,980.28
2019-05-20T04:35:22.906Z,980.29
2019-05-20T04:36:18.147Z,980.24
2019-05-20T04:37:18.117Z,980.25
2019-05-20T04:38:18.096Z,980.24
2019-05-20T04:39:18.079Z,980.26
2019-05-20T04:40:18.066Z,980.23
2019-05-20T04:41:18.039Z,980.23
2019-05-20T04:42:18.027Z,980.20
2019-05-20T04:43:18.018Z,980.23
2019-05-20T04:44:17.997Z,980.22
2019-05-20T04:45:17.983Z,980.25
2019-05-20T04:46:17.967Z,980.25
2019-05-20T04:47:17.974Z,980.23
2019-05-20T04:48:17.954Z,980.22
2019-05-20T04:49:17.931Z,980.23
2019-05-20T04:50:17.905Z,980.18
2019-05-20T04:51:17.908Z,980.22
2019-05-20T04:52:17.870Z,980.22
2019-05-20T04:53:17.851Z,980.23
2019-05-20T04:54:17.840Z,980.24
2019-05-20T04:55:17.852Z,980.27
2019-05-20T04:56:17.812Z,980.29
2019-05-20T04:57:17.826Z,980.33
2019-05-20T04:58:17.778Z,980.31
2019-05-20T04:59:17.758Z,980.33
2019-05-20T05:00:17.743Z,980.33
2019-05-20T05:01:17.745Z,980.31
2019-05-20T05:02:17.722Z,980.38
2019-05-20T05:03:17.707Z,980.36
2019-05-20T05:04:17.689Z,980.35
2019-05-20T05:05:17.665Z,980.36
2019-05-20T05:06:17.673Z,980.40
2019-05-20T05:07:17.682Z,980.38
2019-05-20T05:08:17.648Z,980.43
2019-05-20T05:09:17.625Z,980.44
2019-05-20T05:10:17.633Z,980.42
2019-05-20T05:11:17.575Z,980.42
2019-05-20T05:12:17.560Z,980.40
2019-05-20T05:13:17.555Z,980.40
2019-05-20T05:14:17.540Z,980.43
2019-05-20T05:15:17.518Z,980.46
2019-05-20T05:16:17.505Z,980.44
2019-05-20T05:17:17.498Z,980.45
2019-05-20T05:18:17.474Z,980.39
2019-05-20T05:19:17.474Z,980.41
2019-05-20T05:20:18.655Z,980.42
2019-05-20T05:21:17.452Z,980.43
2019-05-20T05:22:17.428Z,980.48
2019-05-20T05:23:17.404Z,980.43
2019-05-20T05:24:17.383Z,980.47
2019-05-20T05:25:17.387Z,980.47
2019-05-20T05:26:17.354Z,980.48
2019-05-20T05:27:17.355Z,980.49
2019-05-20T05:28:17.337Z,980.50
2019-05-20T05:29:17.333Z,980.51
2019-05-20T05:30:17.300Z,980.53
2019-05-20T05:31:17.284Z,980.53
2019-05-20T05:32:17.270Z,980.57
2019-05-20T05:33:17.248Z,980.53
2019-05-20T05:34:17.257Z,980.51
2019-05-20T05:35:17.230Z,980.51
2019-05-20T05:36:17.206Z,980.48
2019-05-20T05:37:17.207Z,980.47
2019-05-20T05:38:17.193Z,980.45
2019-05-20T05:39:17.186Z,980.45
2019-05-20T05:40:17.152Z,980.47
2019-05-20T05:41:17.136Z,980.48
2019-05-20T05:42:17.137Z,980.45
2019-05-20T05:43:17.109Z,980.47
2019-05-20T05:44:17.096Z,980.49
2019-05-20T05:45:17.105Z,980.51
2019-05-20T05:46:17.077Z,980.57
2019-05-20T05:47:17.055Z,980.58
2019-05-20T05:48:17.042Z,980.57
2019-05-20T05:49:17.045Z,980.56
2019-05-20T05:50:17.011Z,980.56
2019-05-20T05:51:17.003Z,980.58
2019-05-20T05:52:16.978Z,980.60
2019-05-20T05:53:16.986Z,980.55
2019-05-20T05:54:16.957Z,980.62
2019-05-20T05:55:16.967Z,980.56
2019-05-20T05:56:16.928Z,980.57
2019-05-20T05:57:16.928Z,980.60
2019-05-20T05:58:16.922Z,980.59
2019-05-20T05:59:16.891Z,980.62
2019-05-20T06:00:16.867Z,980.61
2019-05-20T06:01:16.862Z,980.63
2019-05-20T06:02:16.848Z,980.68
2019-05-20T06:03:16.825Z,980.70
2019-05-20T06:04:16.816Z,980.76
2019-05-20T06:05:16.805Z,980.70
2019-05-20T06:06:16.810Z,980.72
2019-05-20T06:07:16.773Z,980.76
2019-05-20T06:08:16.762Z,980.77
2019-05-20T06:09:16.751Z,980.78
2019-05-20T06:10:16.756Z,980.79
2019-05-20T06:11:16.741Z,980.77
2019-05-20T06:12:16.706Z,980.84
2019-05-20T06:13:16.699Z,980.80
2019-05-20T06:14:16.677Z,980.83
2019-05-20T06:15:16.659Z,980.84
2019-05-20T06:16:16.647Z,980.86
2019-05-20T06:17:16.641Z,980.87
2019-05-20T06:18:16.622Z,980.88
2019-05-20T06:19:16.669Z,980.86
2019-05-20T06:20:16.602Z,980.85
2019-05-20T06:21:16.585Z,980.89
2019-05-20T06:22:16.575Z,980.87
2019-05-20T06:23:16.561Z,980.86
2019-05-20T06:24:16.551Z,980.88
2019-05-20T06:25:16.534Z,980.88
2019-05-20T06:26:16.522Z,980.85
2019-05-20T06:27:16.511Z,980.87
2019-05-20T06:28:16.504Z,980.88
2019-05-20T06:29:16.483Z,980.90
2019-05-20T06:30:16.471Z,980.86
2019-05-20T06:31:16.452Z,980.86
2019-05-20T06:32:16.448Z,980.86
2019-05-20T06:33:16.433Z,980.87
2019-05-20T06:34:16.422Z,980.86
2019-05-20T06:35:16.410Z,980.91
2019-05-20T06:36:26.521Z,980.89
2019-05-20T06:37:16.374Z,980.91
2019-05-20T06:38:16.384Z,980.88
2019-05-20T06:39:16.350Z,980.91
2019-05-20T06:40:16.363Z,980.96
2019-05-20T06:41:16.350Z,980.95
2019-05-20T06:42:16.333Z,980.97
2019-05-20T06:43:16.298Z,981.00
2019-05-20T06:44:16.323Z,980.97
2019-05-20T06:45:16.269Z,980.99
2019-05-20T06:46:16.259Z,981.02
2019-05-20T06:47:16.261Z,981.00
2019-05-20T06:48:16.229Z,981.03
2019-05-20T06:49:16.253Z,980.99
2019-05-20T06:50:16.276Z,981.03
2019-05-20T06:51:16.191Z,981.02
2019-05-20T06:52:16.186Z,981.03
2019-05-20T06:53:16.171Z,981.00
2019-05-20T06:54:16.151Z,981.02
2019-05-20T06:55:16.145Z,980.99
2019-05-20T06:56:16.136Z,980.99
2019-05-20T06:57:16.143Z,980.99
2019-05-20T06:58:16.109Z,980.99
2019-05-20T06:59:16.117Z,980.97
2019-05-20T07:00:16.087Z,981.03
2019-05-20T07:01:16.070Z,980.97
2019-05-20T07:02:16.055Z,980.99
2019-05-20T07:03:16.037Z,981.02
2019-05-20T07:04:16.033Z,981.03
2019-05-20T07:05:16.014Z,981.02
2019-05-20T07:06:16.014Z,981.02
2019-05-20T07:07:20.901Z,981.01
2019-05-20T07:08:15.991Z,981.03
2019-05-20T07:09:15.978Z,981.02
2019-05-20T07:10:15.962Z,981.03
2019-05-20T07:11:15.933Z,981.08
2019-05-20T07:12:15.950Z,981.11
2019-05-20T07:13:16.449Z,981.09
2019-05-20T07:14:15.903Z,981.15
2019-05-20T07:15:15.916Z,981.13
2019-05-20T07:16:15.873Z,981.11
2019-05-20T07:17:15.859Z,981.17
2019-05-20T07:18:15.851Z,981.12
2019-05-20T07:19:15.835Z,981.12
2019-05-20T07:20:15.839Z,981.12
2019-05-20T07:21:15.807Z,981.14
2019-05-20T07:22:15.795Z,981.13
2019-05-20T07:23:15.798Z,981.12
2019-05-20T07:24:15.785Z,981.11
2019-05-20T07:25:15.823Z,981.08
2019-05-20T07:26:15.740Z,981.06
2019-05-20T07:27:15.741Z,981.12
2019-05-20T07:28:15.724Z,981.07
2019-05-20T07:29:15.709Z,981.08
2019-05-20T07:30:15.887Z,981.09
2019-05-20T07:31:15.774Z,981.12
2019-05-20T07:32:15.672Z,981.13
2019-05-20T07:33:15.652Z,981.13
2019-05-20T07:34:15.662Z,981.20
2019-05-20T07:35:29.767Z,981.17
2019-05-20T07:36:15.648Z,981.18
2019-05-20T07:37:15.609Z,981.14
2019-05-20T07:38:15.595Z,981.16
2019-05-20T07:39:15.595Z,981.14
2019-05-20T07:40:15.561Z,981.08
2019-05-20T07:41:15.556Z,981.10
2019-05-20T07:42:15.540Z,981.14
2019-05-20T07:43:15.542Z,981.14
2019-05-20T07:44:15.519Z,981.17
2019-05-20T07:45:15.507Z,981.18
2019-05-20T07:46:15.515Z,981.22
2019-05-20T07:47:15.495Z,981.18
2019-05-20T07:48:15.467Z,981.15
2019-05-20T07:49:15.544Z,981.19
2019-05-20T07:50:15.435Z,981.15
2019-05-20T07:51:15.438Z,981.17
2019-05-20T07:52:15.487Z,981.17
2019-05-20T07:53:15.443Z,981.19
2019-05-20T07:54:15.399Z,981.19
2019-05-20T07:55:15.379Z,981.21
2019-05-20T07:56:15.369Z,981.20
2019-05-20T07:57:15.355Z,981.20
2019-05-20T07:58:15.344Z,981.21
2019-05-20T07:59:15.335Z,981.21
2019-05-20T08:00:15.333Z,981.23
2019-05-20T08:01:15.339Z,981.23
2019-05-20T08:02:15.304Z,981.21
2019-05-20T08:03:15.284Z,981.26
2019-05-20T08:04:15.306Z,981.23
2019-05-20T08:05:15.299Z,981.20
2019-05-20T08:06:15.245Z,981.18
2019-05-20T08:07:27.393Z,981.22
2019-05-20T08:08:15.219Z,981.20
2019-05-20T08:09:15.225Z,981.18
2019-05-20T08:10:15.195Z,981.21
2019-05-20T08:11:15.206Z,981.19
2019-05-20T08:12:15.167Z,981.22
2019-05-20T08:13:15.160Z,981.27
2019-05-20T08:14:15.159Z,981.26
2019-05-20T08:15:15.134Z,981.29
2019-05-20T08:16:15.131Z,981.29
2019-05-20T08:17:15.114Z,981.30
2019-05-20T08:18:15.100Z,981.28
2019-05-20T08:19:15.086Z,981.20
2019-05-20T08:20:15.074Z,981.22
2019-05-20T08:21:15.065Z,981.24
2019-05-20T08:22:15.056Z,981.19
2019-05-20T08:23:15.043Z,981.22
2019-05-20T08:24:15.033Z,981.20
2019-05-20T08:25:15.017Z,981.24
2019-05-20T08:26:15.002Z,981.25
2019-05-20T08:27:15.009Z,981.23
2019-05-20T08:28:14.983Z,981.19
2019-05-20T08:29:14.973Z,981.22
2019-05-20T08:30:14.964Z,981.24
2019-05-20T08:31:14.999Z,981.21
2019-05-20T08:32:14.935Z,981.20
2019-05-20T08:33:14.938Z,981.21
2019-05-20T08:34:14.976Z,981.27
2019-05-20T08:35:14.906Z,981.28
2019-05-20T08:36:14.910Z,981.25
2019-05-20T08:37:14.893Z,981.26
2019-05-20T08:38:14.896Z,981.27
2019-05-20T08:39:14.872Z,981.33
2019-05-20T08:40:14.865Z,981.35
2019-05-20T08:41:14.866Z,981.25
2019-05-20T08:42:14.860Z,981.30
2019-05-20T08:43:14.844Z,981.34
2019-05-20T08:44:14.830Z,981.33
2019-05-20T08:45:14.829Z,981.35
2019-05-20T08:46:14.814Z,981.39
2019-05-20T08:47:14.810Z,981.37
2019-05-20T08:48:14.803Z,981.40
2019-05-20T08:49:14.795Z,981.40
2019-05-20T08:50:16.325Z,981.38
2019-05-20T08:51:14.786Z,981.39
2019-05-20T08:52:14.775Z,981.44
2019-05-20T08:53:14.768Z,981.47
2019-05-20T08:54:14.766Z,981.53
2019-05-20T08:55:14.759Z,981.44
2019-05-20T08:56:14.759Z,981.47
2019-05-20T08:57:14.744Z,981.46
2019-05-20T08:58:14.746Z,981.47
2019-05-20T08:59:14.762Z,981.47
2019-05-20T09:00:14.747Z,981.48
2019-05-20T09:01:14.755Z,981.52
2019-05-20T09:02:14.730Z,981.51
2019-05-20T09:03:14.701Z,981.47
2019-05-20T09:04:14.717Z,981.48
2019-05-20T09:05:14.719Z,981.50
2019-05-20T09:06:14.707Z,981.48
2019-05-20T09:07:14.691Z,981.45
2019-05-20T09:08:14.685Z,981.47
2019-05-20T09:09:14.680Z,981.39
2019-05-20T09:10:18.047Z,981.38
2019-05-20T09:11:14.764Z,981.39
2019-05-20T09:12:14.712Z,981.40
2019-05-20T09:13:14.670Z,981.40
2019-05-20T09:14:14.739Z,981.39
2019-05-20T09:15:14.633Z,981.37
2019-05-20T09:16:14.748Z,981.40
2019-05-20T09:17:14.606Z,981.39
2019-05-20T09:18:14.724Z,981.46
2019-05-20T09:19:17.564Z,981.46
2019-05-20T09:20:14.619Z,981.49
2019-05-20T09:21:14.772Z,981.49
2019-05-20T09:22:14.618Z,981.51
2019-05-20T09:23:14.595Z,981.46
2019-05-20T09:24:18.469Z,981.48
2019-05-20T09:25:14.916Z,981.42
2019-05-20T09:26:14.549Z,981.43
2019-05-20T09:27:16.705Z,981.49
2019-05-20T09:28:14.527Z,981.48
2019-05-20T09:29:14.550Z,981.47
2019-05-20T09:30:14.565Z,981.49
2019-05-20T09:31:14.713Z,981.54
2019-05-20T09:32:14.552Z,981.55
2019-05-20T09:33:14.502Z,981.48
2019-05-20T09:34:14.542Z,981.52
2019-05-20T09:35:14.490Z,981.48
2019-05-20T09:36:14.477Z,981.50
2019-05-20T09:37:14.462Z,981.51
2019-05-20T09:38:19.953Z,981.58
2019-05-20T09:39:14.442Z,981.53
2019-05-20T09:40:14.451Z,981.50
2019-05-20T09:41:14.509Z,981.53
2019-05-20T09:42:14.419Z,981.51
2019-05-20T09:43:14.418Z,981.49
2019-05-20T09:44:14.422Z,981.48
2019-05-20T09:45:14.417Z,981.50
2019-05-20T09:46:14.407Z,981.52
2019-05-20T09:47:14.375Z,981.50
2019-05-20T09:48:14.372Z,981.49
2019-05-20T09:49:14.385Z,981.47
2019-05-20T09:50:14.370Z,981.47
2019-05-20T09:51:14.343Z,981.44
2019-05-20T09:52:14.331Z,981.49
2019-05-20T09:53:14.334Z,981.49
2019-05-20T09:54:14.313Z,981.48
2019-05-20T09:55:14.318Z,981.47
2019-05-20T09:56:14.316Z,981.49
2019-05-20T09:57:14.289Z,981.47
2019-05-20T09:58:14.276Z,981.47
2019-05-20T09:59:16.474Z,981.54
2019-05-20T10:00:14.260Z,981.50
2019-05-20T10:01:14.260Z,981.49
2019-05-20T10:02:14.251Z,981.49
2019-05-20T10:03:14.236Z,981.54
2019-05-20T10:04:14.251Z,981.57
2019-05-20T10:05:14.222Z,981.57
2019-05-20T10:06:14.213Z,981.57
2019-05-20T10:07:14.283Z,981.61
2019-05-20T10:08:14.199Z,981.57
2019-05-20T10:09:14.191Z,981.55
2019-05-20T10:10:14.196Z,981.55
2019-05-20T10:11:14.246Z,981.59
2019-05-20T10:12:14.167Z,981.55
2019-05-20T10:13:14.363Z,981.59
2019-05-20T10:14:14.158Z,981.60
2019-05-20T10:15:14.156Z,981.57
2019-05-20T10:16:14.142Z,981.61
2019-05-20T10:17:14.122Z,981.59
2019-05-20T10:18:14.111Z,981.57
2019-05-20T10:19:14.107Z,981.53
2019-05-20T10:20:14.125Z,981.54
2019-05-20T10:21:14.093Z,981.49
2019-05-20T10:22:14.098Z,981.45
2019-05-20T10:23:15.909Z,981.46
2019-05-20T10:24:14.066Z,981.48
2019-05-20T10:25:14.053Z,981.43
2019-05-20T10:26:14.049Z,981.47
2019-05-20T10:27:14.037Z,981.48
2019-05-20T10:28:14.052Z,981.49
2019-05-20T10:29:14.083Z,981.48
2019-05-20T10:30:14.018Z,981.45
2019-05-20T10:31:14.038Z,981.46
2019-05-20T10:32:14.011Z,981.48
2019-05-20T10:33:13.981Z,981.46
2019-05-20T10:34:13.975Z,981.52
2019-05-20T10:35:14.007Z,981.48
2019-05-20T10:36:13.958Z,981.49
2019-05-20T10:37:13.974Z,981.52
2019-05-20T10:38:13.947Z,981.57
2019-05-20T10:39:13.938Z,981.60
2019-05-20T10:40:13.930Z,981.60
2019-05-20T10:41:13.922Z,981.60
2019-05-20T10:42:13.906Z,981.61
2019-05-20T10:43:13.908Z,981.66
2019-05-20T10:44:13.895Z,981.58
2019-05-20T10:45:13.882Z,981.59
2019-05-20T10:46:13.871Z,981.62
2019-05-20T10:47:13.866Z,981.58
2019-05-20T10:48:13.862Z,981.61
2019-05-20T10:49:13.850Z,981.62
2019-05-20T10:50:13.833Z,981.64
2019-05-20T10:51:13.824Z,981.67
2019-05-20T10:52:13.840Z,981.68
2019-05-20T10:53:13.820Z,981.70
2019-05-20T10:54:13.798Z,981.65
2019-05-20T10:55:13.786Z,981.71
2019-05-20T10:56:14.202Z,981.68
2019-05-20T10:57:13.820Z,981.67
2019-05-20T10:58:13.767Z,981.64
2019-05-20T10:59:13.763Z,981.74
2019-05-20T11:00:13.756Z,981.74
2019-05-20T11:01:13.750Z,981.71
2019-05-20T11:02:13.750Z,981.75
2019-05-20T11:03:13.728Z,981.75
2019-05-20T11:04:13.724Z,981.76
2019-05-20T11:05:13.700Z,981.80
2019-05-20T11:06:13.721Z,981.83
2019-05-20T11:07:13.677Z,981.81
2019-05-20T11:08:13.672Z,981.85
2019-05-20T11:09:14.600Z,981.83
2019-05-20T11:10:13.669Z,981.84
2019-05-20T11:11:14.582Z,981.87
2019-05-20T11:12:13.664Z,981.86
2019-05-20T11:13:13.640Z,981.88
2019-05-20T11:14:13.617Z,981.89
2019-05-20T11:15:13.604Z,981.86
2019-05-20T11:16:13.594Z,981.83
2019-05-20T11:17:15.139Z,981.85
2019-05-20T11:18:13.573Z,981.85
2019-05-20T11:19:13.586Z,981.82
2019-05-20T11:20:13.581Z,981.86
2019-05-20T11:21:13.609Z,981.86
2019-05-20T11:22:13.540Z,981.87
2019-05-20T11:23:13.571Z,981.84
2019-05-20T11:24:13.523Z,981.84
2019-05-20T11:25:13.514Z,981.81
2019-05-20T11:26:13.590Z,981.80
2019-05-20T11:27:13.493Z,981.80
2019-05-20T11:28:13.479Z,981.81
2019-05-20T11:29:13.564Z,981.83
2019-05-20T11:30:13.457Z,981.82
2019-05-20T11:31:13.449Z,981.79
2019-05-20T11:32:13.438Z,981.78
2019-05-20T11:33:13.427Z,981.76
2019-05-20T11:34:13.427Z,981.79
2019-05-20T11:35:13.433Z,981.79
2019-05-20T11:36:13.399Z,981.77
2019-05-20T11:37:13.395Z,981.74
2019-05-20T11:38:13.423Z,981.79
2019-05-20T11:39:29.172Z,981.76
2019-05-20T11:40:13.780Z,981.76
2019-05-20T11:41:13.353Z,981.78
2019-05-20T11:42:13.352Z,981.75
2019-05-20T11:43:13.329Z,981.72
2019-05-20T11:44:13.337Z,981.73
2019-05-20T11:45:13.319Z,981.71
2019-05-20T11:46:13.302Z,981.73
2019-05-20T11:47:13.303Z,981.74
2019-05-20T11:48:13.283Z,981.72
2019-05-20T11:49:13.271Z,981.70
2019-05-20T11:50:13.262Z,981.75
2019-05-20T11:51:13.264Z,981.74
2019-05-20T11:52:13.237Z,981.79
2019-05-20T11:53:13.243Z,981.72
2019-05-20T11:54:13.223Z,981.71
2019-05-20T11:55:13.238Z,981.69
2019-05-20T11:56:13.213Z,981.68
2019-05-20T11:57:13.212Z,981.62
2019-05-20T11:58:16.080Z,981.63
2019-05-20T11:59:13.183Z,981.57
2019-05-20T12:00:13.164Z,981.58
2019-05-20T12:01:13.161Z,981.52
2019-05-20T12:02:13.179Z,981.46
2019-05-20T12:03:13.134Z,981.49
2019-05-20T12:04:13.118Z,981.43
2019-05-20T12:05:13.140Z,981.43
2019-05-20T12:06:13.112Z,981.38
2019-05-20T12:07:13.088Z,981.36
2019-05-20T12:08:13.118Z,981.27
2019-05-20T12:09:13.074Z,981.29
2019-05-20T12:10:13.064Z,981.24
2019-05-20T12:11:13.045Z,981.26
2019-05-20T12:12:13.035Z,981.24
2019-05-20T12:13:13.030Z,981.22
2019-05-20T12:14:13.016Z,981.21
2019-05-20T12:15:13.019Z,981.26
2019-05-20T12:16:13.013Z,981.24
2019-05-20T12:17:12.997Z,981.25
2019-05-20T12:18:12.974Z,981.24
2019-05-20T12:19:12.957Z,981.18
2019-05-20T12:20:12.985Z,981.21
2019-05-20T12:21:12.947Z,981.24
2019-05-20T12:22:12.928Z,981.31
2019-05-20T12:23:12.914Z,981.25
2019-05-20T12:24:12.902Z,981.31
2019-05-20T12:25:12.932Z,981.39
2019-05-20T12:26:12.881Z,981.35
2019-05-20T12:27:12.876Z,981.32
2019-05-20T12:28:12.856Z,981.34
2019-05-20T12:29:12.849Z,981.37
2019-05-20T12:30:12.838Z,981.32
2019-05-20T12:31:12.846Z,981.32
2019-05-20T12:32:12.804Z,981.28
2019-05-20T12:33:19.130Z,981.27